Time;durP1;ratioP1;P1;durP2;ratioP2;P2;SDS_P1;SDS_P2;PMS_P1;PMS_P2;Temp;Humidity;BMP_temperature;BMP_pressure;BME280_temperature;BME280_humidity;BME280_pressure;Samples;Min_cycle;Max_cycle;Signal;HPM_P1;HPM_P2
2021/12/17 00:05:03;;;;;;;23.38;13.02;;;11.10;83.00;;;;;;4936708;28;93151;-70
2021/12/17 00:07:35;;;;;;;24.23;12.13;;;11.10;83.00;;;;;;4936773;28;92919;-70
2021/12/17 00:10:06;;;;;;;27.95;12.77;;;11.20;83.10;;;;;;4935234;28;92889;-73
2021/12/17 00:12:33;;;;;;;23.60;12.93;;;11.10;83.00;;;;;;4937319;28;91725;-73
2021/12/17 00:15:01;;;;;;;26.13;13.27;;;11.10;83.10;;;;;;4936323;28;93090;-73
2021/12/17 00:17:33;;;;;;;25.20;12.32;;;11.10;83.10;;;;;;4934664;28;105487;-70
2021/12/17 00:50:21;;;;;;;26.25;11.93;;;11.00;83.60;;;;;;4934542;28;97850;-70
2021/12/17 00:52:49;;;;;;;27.85;12.10;;;11.00;83.60;;;;;;4933943;28;92484;-70
2021/12/17 00:55:15;;;;;;;21.80;11.90;;;11.00;83.60;;;;;;4935643;28;92789;-70
2021/12/17 00:57:45;;;;;;;23.52;11.73;;;11.00;83.60;;;;;;4934546;28;95984;-70
2021/12/17 01:00:20;;;;;;;25.90;11.77;;;11.00;83.60;;;;;;4934358;28;95529;-70
2021/12/17 01:02:49;;;;;;;24.23;11.55;;;11.00;83.60;;;;;;4934737;28;92374;-72
2021/12/17 01:05:24;;;;;;;21.88;11.32;;;11.00;83.70;;;;;;4934683;28;91859;-70
2021/12/17 01:07:53;;;;;;;24.95;12.32;;;11.00;83.70;;;;;;4934681;28;94859;-70
2021/12/17 01:10:31;;;;;;;26.85;11.77;;;11.00;83.80;;;;;;4935717;28;92837;-72
2021/12/17 01:13:33;;;;;;;25.15;10.98;;;11.10;83.50;;;;;;4927967;28;95045;-73
2021/12/17 01:16:13;;;;;;;19.02;10.25;;;11.00;83.60;;;;;;4934321;28;92469;-70
2021/12/17 01:25:05;;;;;;;20.08;10.13;;;10.90;84.10;;;;;;4934719;28;92475;-70
2021/12/17 01:36:48;;;;;;;24.73;11.63;;;10.80;84.40;;;;;;4935086;28;92523;-73
2021/12/17 01:42:05;;;;;;;20.13;10.60;;;10.80;85.20;;;;;;4934243;28;95368;-73
2021/12/17 01:44:39;;;;;;;22.90;10.80;;;10.70;84.60;;;;;;4933870;28;97909;-73
2021/12/17 01:47:09;;;;;;;25.08;11.77;;;10.80;84.80;;;;;;4933909;28;92470;-73
2021/12/17 02:00:33;;;;;;;30.60;12.13;;;10.50;86.10;;;;;;4933843;28;92444;-73
2021/12/17 02:03:01;;;;;;;27.75;12.68;;;10.50;86.10;;;;;;4933811;28;95808;-73
2021/12/17 02:05:34;;;;;;;30.80;13.55;;;10.50;86.40;;;;;;4935880;28;95870;-70
2021/12/17 02:08:02;;;;;;;26.92;12.45;;;10.50;86.20;;;;;;4951970;28;95230;-70
2021/12/17 02:30:03;;;;;;;24.17;12.35;;;10.30;87.20;;;;;;4936923;28;92485;-70
2021/12/17 02:32:32;;;;;;;26.02;12.95;;;10.20;86.90;;;;;;4936478;28;92495;-70
2021/12/17 02:37:45;;;;;;;22.40;11.35;;;10.30;86.60;;;;;;4936451;28;96522;-70
2021/12/17 02:46:24;;;;;;;13.27;8.20;;;10.20;86.80;;;;;;4936773;28;95258;-73
2021/12/17 02:48:51;;;;;;;16.55;9.02;;;10.20;86.60;;;;;;4937026;28;95451;-73
2021/12/17 02:51:22;;;;;;;14.68;7.65;;;10.20;86.70;;;;;;4937014;28;92506;-73
2021/12/17 02:53:50;;;;;;;15.05;7.78;;;10.20;86.80;;;;;;4937258;28;91794;-73
2021/12/17 02:56:17;;;;;;;14.50;7.45;;;10.20;86.70;;;;;;4938007;28;94929;-73
2021/12/17 02:58:45;;;;;;;11.55;5.72;;;10.20;86.70;;;;;;4937769;28;94162;-73
2021/12/17 03:01:12;;;;;;;9.05;5.47;;;10.20;86.40;;;;;;4937091;28;94909;-73
2021/12/17 03:03:43;;;;;;;12.52;6.15;;;10.10;86.40;;;;;;4953123;28;92537;-73
2021/12/17 03:06:10;;;;;;;10.32;5.75;;;10.10;86.40;;;;;;4920689;28;94340;-73
2021/12/17 03:08:37;;;;;;;13.13;6.40;;;10.10;86.50;;;;;;4920881;28;93972;-73
2021/12/17 03:11:05;;;;;;;11.50;5.65;;;10.00;86.60;;;;;;4936992;28;92449;-73
2021/12/17 03:13:35;;;;;;;15.25;6.80;;;10.10;86.40;;;;;;4936522;28;92745;-72
2021/12/17 03:16:11;;;;;;;11.95;5.57;;;10.10;86.40;;;;;;4937027;28;93271;-70
2021/12/17 03:23:57;;;;;;;9.98;5.82;;;10.20;86.00;;;;;;4936750;28;93078;-70
2021/12/17 03:26:29;;;;;;;8.60;4.80;;;10.20;86.00;;;;;;4934978;28;97452;-73
2021/12/17 03:29:02;;;;;;;9.43;5.32;;;10.20;85.80;;;;;;4920315;28;96284;-70
2021/12/17 03:31:30;;;;;;;10.27;5.13;;;10.30;86.30;;;;;;4936468;28;92445;-70
2021/12/17 03:34:21;;;;;;;10.35;5.13;;;10.20;85.60;;;;;;4936482;28;92885;-73
2021/12/17 03:36:54;;;;;;;11.77;6.10;;;10.20;85.50;;;;;;4936339;28;95467;-73
2021/12/17 03:39:26;;;;;;;10.85;6.15;;;10.20;85.60;;;;;;4937527;28;92743;-73
2021/12/17 03:41:56;;;;;;;;;;;10.30;85.60;;;;;;4936923;28;92576;-73
2021/12/17 03:44:31;;;;;;;10.80;5.57;;;10.10;85.30;;;;;;4937714;28;91815;-73
2021/12/17 03:47:02;;;;;;;11.43;5.90;;;10.20;85.50;;;;;;4935226;28;92838;-73
2021/12/17 03:49:42;;;;;;;11.30;5.57;;;10.20;85.40;;;;;;4935850;28;94033;-73
2021/12/17 03:52:10;;;;;;;11.85;6.35;;;10.20;85.30;;;;;;4935054;28;94892;-73
2021/12/17 03:54:40;;;;;;;14.85;6.78;;;10.10;85.20;;;;;;4936011;28;92483;-73
2021/12/17 03:57:11;;;;;;;12.73;6.05;;;10.10;85.20;;;;;;4935956;28;96044;-73
2021/12/17 03:59:43;;;;;;;12.68;5.78;;;10.10;85.30;;;;;;4935892;28;94202;-73
2021/12/17 04:02:11;;;;;;;16.30;6.53;;;10.10;85.30;;;;;;4935818;28;92418;-73
2021/12/17 04:04:39;;;;;;;14.70;6.38;;;10.10;85.90;;;;;;4935708;28;92551;-73
2021/12/17 04:07:26;;;;;;;11.85;6.35;;;10.10;85.40;;;;;;4925400;28;92899;-73
2021/12/17 04:10:19;;;;;;;12.40;6.43;;;10.10;85.30;;;;;;4926888;28;93298;-73
2021/12/17 04:15:18;;;;;;;12.27;6.35;;;10.00;85.30;;;;;;4935845;28;92545;-73
2021/12/17 04:17:52;;;;;;;13.48;6.55;;;10.10;85.30;;;;;;4934099;28;98294;-73
2021/12/17 04:20:19;;;;;;;12.05;6.28;;;10.20;85.30;;;;;;4951167;28;95746;-73
2021/12/17 04:22:46;;;;;;;13.07;7.90;;;10.20;85.10;;;;;;4935281;28;92639;-73
2021/12/17 04:25:13;;;;;;;10.02;6.32;;;10.20;85.00;;;;;;4935664;28;92568;-73
2021/12/17 04:27:41;;;;;;;13.65;6.95;;;10.20;84.90;;;;;;4934913;28;95702;-73
2021/12/17 04:30:09;;;;;;;12.45;6.40;;;10.20;84.90;;;;;;4935514;28;95639;-73
2021/12/17 04:32:36;;;;;;;12.88;7.43;;;10.20;84.90;;;;;;4936635;28;92511;-71
2021/12/17 04:35:03;;;;;;;11.75;7.13;;;10.20;85.00;;;;;;4935972;28;91846;-73
2021/12/17 04:37:38;;;;;;;15.43;8.15;;;10.30;85.00;;;;;;4935166;28;95202;-73
2021/12/17 04:40:06;;;;;;;14.48;8.23;;;10.30;85.50;;;;;;4935466;28;94030;-73
2021/12/17 04:42:56;;;;;;;19.10;9.20;;;10.30;85.00;;;;;;4934121;28;94870;-73
2021/12/17 04:45:25;;;;;;;15.70;8.63;;;10.30;84.90;;;;;;4935341;28;92438;-70
2021/12/17 04:59:18;;;;;;;19.55;9.40;;;10.30;85.00;;;;;;4935155;28;95632;-73
2021/12/17 05:01:46;;;;;;;17.52;8.70;;;10.30;85.00;;;;;;4935258;28;95292;-70
2021/12/17 05:04:13;;;;;;;20.48;9.52;;;10.30;84.90;;;;;;4935280;28;92835;-70
2021/12/17 05:06:40;;;;;;;19.30;9.55;;;10.30;84.90;;;;;;4936377;28;92503;-70
2021/12/17 05:09:22;;;;;;;16.63;8.80;;;10.40;85.00;;;;;;4934873;28;96499;-70
2021/12/17 05:21:11;;;;;;;19.73;9.50;;;10.30;84.90;;;;;;4935005;28;94265;-70
2021/12/17 05:23:07;;;;;;;17.15;8.50;;;10.30;84.90;;;;;;4929450;28;95348;-70
2021/12/17 05:25:34;;;;;;;18.50;8.73;;;10.30;84.90;;;;;;4936206;28;92453;-70
2021/12/17 05:28:02;;;;;;;16.15;8.30;;;10.30;84.80;;;;;;4935266;28;91770;-70
2021/12/17 05:30:35;;;;;;;16.02;7.90;;;10.40;84.90;;;;;;4934737;28;94922;-70
2021/12/17 05:33:03;;;;;;;14.65;8.20;;;10.40;84.80;;;;;;4934774;28;93927;-70
2021/12/17 05:35:31;;;;;;;13.23;7.22;;;10.40;84.80;;;;;;4917707;28;94921;-70
2021/12/17 05:38:00;;;;;;;15.13;7.88;;;10.40;84.80;;;;;;4934731;28;92474;-70
2021/12/17 05:40:28;;;;;;;14.75;6.75;;;10.40;84.80;;;;;;4936555;28;94061;-70
2021/12/17 05:42:59;;;;;;;13.52;7.38;;;10.40;84.70;;;;;;4937960;28;95132;-70
2021/12/17 05:48:23;;;;;;;13.50;6.50;;;10.40;84.60;;;;;;4938133;28;92463;-70
2021/12/17 05:50:53;;;;;;;13.65;7.00;;;10.40;84.60;;;;;;4937518;28;95652;-72
2021/12/17 05:53:20;;;;;;;14.07;5.78;;;10.40;84.60;;;;;;4938118;28;93901;-73
2021/12/17 05:55:49;;;;;;;11.48;6.15;;;10.40;84.60;;;;;;4937610;28;92523;-73
2021/12/17 05:58:17;;;;;;;11.60;5.72;;;10.40;84.60;;;;;;4938028;28;92524;-73
2021/12/17 06:00:44;;;;;;;12.10;5.78;;;10.40;84.60;;;;;;4936163;28;98118;-73
2021/12/17 06:03:30;;;;;;;10.85;6.25;;;10.30;84.80;;;;;;4937910;28;93720;-73
2021/12/17 06:06:04;;;;;;;10.45;5.50;;;10.30;84.80;;;;;;4937644;28;93043;-73
2021/12/17 06:08:32;;;;;;;11.48;5.65;;;10.30;84.90;;;;;;4937608;28;92519;-70
2021/12/17 06:10:59;;;;;;;9.32;5.53;;;10.30;84.80;;;;;;4937263;28;95646;-70
2021/12/17 06:13:26;;;;;;;11.27;5.90;;;10.30;84.90;;;;;;4921541;28;96007;-70
2021/12/17 06:15:53;;;;;;;14.23;7.55;;;10.30;84.90;;;;;;4937593;28;92496;-70
2021/12/17 06:18:20;;;;;;;10.27;6.47;;;10.30;84.80;;;;;;4938116;28;91765;-70
2021/12/17 06:20:47;;;;;;;13.43;6.13;;;10.30;84.80;;;;;;4937649;28;93165;-72
2021/12/17 06:23:14;;;;;;;11.48;6.47;;;10.30;84.70;;;;;;4937287;28;93970;-70
2021/12/17 06:25:42;;;;;;;9.90;6.32;;;10.30;84.60;;;;;;4936188;28;94985;-73
2021/12/17 06:28:09;;;;;;;11.50;5.95;;;10.30;84.60;;;;;;4937541;28;92923;-70
2021/12/17 06:30:36;;;;;;;10.52;6.22;;;10.40;84.60;;;;;;4937234;28;95968;-70
2021/12/17 06:33:06;;;;;;;10.98;6.78;;;10.40;84.60;;;;;;4937436;28;95023;-70
2021/12/17 06:35:33;;;;;;;10.00;6.03;;;10.40;84.50;;;;;;4937211;28;92572;-73
2021/12/17 06:38:00;;;;;;;12.18;6.85;;;10.40;84.60;;;;;;4936888;28;92552;-73
2021/12/17 06:40:32;;;;;;;11.73;6.80;;;10.40;84.40;;;;;;4937155;28;94184;-73
2021/12/17 06:43:00;;;;;;;11.00;6.60;;;10.40;84.40;;;;;;4937373;28;96174;-73
2021/12/17 06:45:50;;;;;;;11.40;6.90;;;10.40;84.40;;;;;;4937417;28;92651;-73
2021/12/17 06:48:21;;;;;;;17.60;9.82;;;10.40;84.40;;;;;;4937283;28;92470;-73
2021/12/17 07:06:07;;;;;;;12.25;6.70;;;10.40;84.30;;;;;;4947217;28;92520;-70
2021/12/17 07:09:37;;;;;;;12.40;7.22;;;10.40;84.40;;;;;;4937766;28;92533;-73
2021/12/17 07:17:24;;;;;;;12.75;7.70;;;10.40;84.30;;;;;;4936550;28;93942;-70
2021/12/17 07:28:30;;;;;;;13.07;8.18;;;10.40;84.30;;;;;;4936144;28;95826;-73
2021/12/17 07:33:58;;;;;;;11.68;7.50;;;10.40;84.10;;;;;;4936220;28;92504;-70
2021/12/17 07:38:35;;;;;;;13.93;8.10;;;10.50;84.10;;;;;;4936406;28;95855;-73
2021/12/17 07:39:36;;;;;;;10.40;7.75;;;10.40;84.10;;;;;;4936755;28;94984;-73
2021/12/17 07:42:10;;;;;;;11.10;8.07;;;10.40;84.00;;;;;;4936168;28;92456;-70
2021/12/17 07:44:37;;;;;;;15.32;8.65;;;10.40;84.00;;;;;;4937875;28;92495;-70
2021/12/17 07:47:19;;;;;;;16.33;8.60;;;10.40;84.00;;;;;;4921154;28;97894;-70
2021/12/17 07:50:06;;;;;;;12.48;8.35;;;10.40;84.00;;;;;;4935942;28;95988;-70
2021/12/17 07:52:41;;;;;;;13.85;8.38;;;10.40;84.00;;;;;;4936324;28;92448;-70
2021/12/17 07:55:09;;;;;;;12.32;8.60;;;10.50;84.00;;;;;;4952216;28;92485;-70
2021/12/17 07:57:37;;;;;;;15.10;9.07;;;10.50;83.90;;;;;;4937424;28;93083;-70
2021/12/17 08:00:06;;;;;;;12.85;8.93;;;10.50;83.80;;;;;;4935787;28;95316;-70
2021/12/17 08:02:41;;;;;;;15.25;8.77;;;10.50;83.70;;;;;;4936398;28;92445;-70
2021/12/17 08:05:28;;;;;;;14.88;9.68;;;10.50;83.70;;;;;;4937656;28;91758;-70
2021/12/17 08:07:55;;;;;;;13.80;9.32;;;10.60;83.70;;;;;;4935817;28;96032;-70
2021/12/17 08:10:23;;;;;;;13.80;8.68;;;10.60;83.60;;;;;;4935908;28;94815;-70
2021/12/17 08:12:54;;;;;;;14.38;9.38;;;10.60;83.40;;;;;;4935033;28;95296;-70
2021/12/17 08:15:30;;;;;;;14.70;9.25;;;10.60;83.40;;;;;;4935733;28;92543;-70
2021/12/17 08:26:38;;;;;;;14.45;8.75;;;10.50;83.80;;;;;;4935487;28;92468;-70
2021/12/17 08:31:36;;;;;;;15.75;9.63;;;10.60;83.60;;;;;;4935976;28;95317;-70
2021/12/17 08:34:05;;;;;;;14.40;9.07;;;10.60;83.60;;;;;;4935607;28;92520;-70
2021/12/17 08:36:34;;;;;;;12.90;8.77;;;10.60;83.60;;;;;;4935642;28;92520;-70
2021/12/17 08:39:03;;;;;;;13.55;8.70;;;10.60;83.60;;;;;;4933932;28;97601;-70
2021/12/17 08:41:40;;;;;;;13.70;8.20;;;10.70;83.50;;;;;;4935504;28;97174;-70
2021/12/17 08:44:09;;;;;;;15.50;9.10;;;10.70;83.50;;;;;;4935261;28;92534;-70
2021/12/17 08:46:48;;;;;;;12.70;8.50;;;10.70;83.40;;;;;;4935576;28;92976;-70
2021/12/17 08:49:23;;;;;;;14.15;9.45;;;10.80;83.90;;;;;;4936806;28;93058;-70
2021/12/17 08:52:07;;;;;;;16.67;9.23;;;10.80;83.80;;;;;;4921342;28;95167;-70
2021/12/17 08:54:35;;;;;;;14.77;9.45;;;10.80;83.20;;;;;;4935408;28;92581;-70
2021/12/17 08:57:03;;;;;;;14.75;9.32;;;10.90;83.20;;;;;;4919383;28;91909;-70
2021/12/17 08:59:34;;;;;;;14.18;9.38;;;10.90;83.00;;;;;;4935039;28;95700;-70
2021/12/17 09:02:13;;;;;;;14.45;9.60;;;10.90;83.00;;;;;;4933387;28;92795;-70
2021/12/17 09:04:53;;;;;;;14.82;9.60;;;10.90;83.20;;;;;;4934114;28;94808;-70
2021/12/17 09:07:20;;;;;;;16.98;10.05;;;10.90;83.20;;;;;;4934967;28;92592;-70
2021/12/17 09:09:49;;;;;;;13.18;9.23;;;10.90;83.10;;;;;;4934250;28;95165;-70
2021/12/17 09:12:23;;;;;;;;;;;10.90;83.10;;;;;;4935535;28;94359;-70
2021/12/17 09:14:53;;;;;;;13.52;9.35;;;10.90;83.00;;;;;;4937661;28;92932;-73
2021/12/17 09:17:56;;;;;;;15.10;9.63;;;10.90;83.80;;;;;;4939353;28;92392;-73
2021/12/17 09:20:28;;;;;;;15.27;9.23;;;10.90;83.30;;;;;;4938419;28;95140;-73
2021/12/17 09:22:55;;;;;;;15.02;9.38;;;11.00;83.20;;;;;;4938439;28;94922;-72
2021/12/17 09:25:29;;;;;;;16.27;9.70;;;10.90;83.30;;;;;;4938746;28;92464;-73
2021/12/17 09:27:59;;;;;;;16.08;9.27;;;10.90;83.40;;;;;;4938578;28;93216;-70
2021/12/17 09:30:42;;;;;;;14.70;9.88;;;10.90;83.30;;;;;;4938332;28;95435;-70
2021/12/17 09:33:09;;;;;;;14.32;9.38;;;10.90;83.40;;;;;;4939271;28;95615;-70
2021/12/17 09:35:36;;;;;;;11.63;8.75;;;10.90;83.50;;;;;;4939620;28;92471;-70
2021/12/17 09:38:04;;;;;;;16.45;9.68;;;10.90;83.60;;;;;;4939291;28;92517;-70
2021/12/17 09:40:31;;;;;;;14.32;9.02;;;10.90;83.70;;;;;;4939360;28;103179;-70
2021/12/17 09:42:58;;;;;;;14.50;9.63;;;11.00;83.50;;;;;;4938092;28;96099;-70
2021/12/17 09:45:25;;;;;;;14.63;9.38;;;11.00;83.40;;;;;;4937904;28;92511;-70
2021/12/17 09:47:52;;;;;;;16.15;9.93;;;11.00;83.30;;;;;;4939961;28;91714;-70
2021/12/17 09:50:21;;;;;;;14.70;10.07;;;11.00;83.30;;;;;;4939224;28;93054;-70
2021/12/17 09:52:48;;;;;;;19.00;10.60;;;11.10;83.00;;;;;;4938796;28;94698;-74
2021/12/17 09:55:15;;;;;;;14.25;10.77;;;11.10;83.10;;;;;;4920104;28;94850;-73
2021/12/17 09:57:42;;;;;;;17.75;11.73;;;11.20;83.00;;;;;;4935045;28;92834;-72
2021/12/17 10:00:13;;;;;;;17.30;11.38;;;11.20;82.60;;;;;;4917181;28;99586;-74
2021/12/17 10:02:44;;;;;;;17.00;10.60;;;11.30;82.70;;;;;;4921939;28;92930;-75
2021/12/17 10:05:20;;;;;;;17.20;10.20;;;11.30;82.60;;;;;;4921534;28;92436;-74
2021/12/17 10:07:54;;;;;;;17.20;9.88;;;11.40;82.30;;;;;;4919588;28;93525;-75
2021/12/17 10:10:21;;;;;;;15.00;10.80;;;11.40;82.00;;;;;;4921134;28;93410;-71
2021/12/17 10:12:48;;;;;;;19.67;11.85;;;11.30;82.20;;;;;;4921841;28;93926;-70
2021/12/17 10:15:20;;;;;;;17.90;10.85;;;11.30;82.50;;;;;;4921371;28;93376;-68
2021/12/17 10:18:01;;;;;;;16.42;10.93;;;11.30;82.40;;;;;;4906708;28;92514;-75
2021/12/17 10:20:51;;;;;;;16.80;11.13;;;11.40;82.50;;;;;;4920298;28;95467;-71
2021/12/17 10:23:21;;;;;;;15.75;10.23;;;11.40;82.30;;;;;;4914469;28;95171;-69
2021/12/17 10:25:48;;;;;;;16.45;10.57;;;11.30;82.50;;;;;;4901455;28;92605;-69
2021/12/17 10:28:15;;;;;;;17.63;10.35;;;11.30;82.60;;;;;;4908970;28;92622;-69
2021/12/17 10:30:45;;;;;;;18.52;10.55;;;11.40;82.60;;;;;;4920120;28;93090;-69
2021/12/17 10:33:16;;;;;;;16.50;10.55;;;11.40;82.50;;;;;;4921216;28;93845;-69
2021/12/17 10:35:46;;;;;;;16.48;10.50;;;11.50;82.40;;;;;;4921435;28;92400;-69
2021/12/17 10:38:17;;;;;;;15.05;10.40;;;11.60;82.40;;;;;;4921173;28;92074;-69
2021/12/17 10:41:02;;;;;;;15.73;10.10;;;11.60;82.20;;;;;;4921048;28;93140;-68
2021/12/17 10:43:35;;;;;;;18.25;10.77;;;11.80;82.10;;;;;;4920866;28;93067;-68
2021/12/17 10:46:23;;;;;;;17.13;10.87;;;11.80;81.90;;;;;;4918423;28;94778;-68
2021/12/17 10:49:02;;;;;;;14.77;10.07;;;11.80;81.70;;;;;;4921382;28;92917;-69
2021/12/17 10:54:11;;;;;;;17.05;10.55;;;11.90;81.70;;;;;;4916472;28;94829;-69
2021/12/17 10:56:40;;;;;;;16.05;10.70;;;11.90;81.60;;;;;;4899749;28;93831;-69
2021/12/17 10:59:09;;;;;;;16.00;9.60;;;11.90;81.80;;;;;;4915708;28;92436;-69
2021/12/17 11:01:58;;;;;;;15.70;10.48;;;11.90;81.60;;;;;;4919679;28;92585;-69
2021/12/17 11:04:34;;;;;;;17.50;10.75;;;11.90;81.90;;;;;;4920723;28;92785;-69
2021/12/17 11:07:13;;;;;;;17.63;10.73;;;11.90;81.80;;;;;;4920849;28;92698;-69
2021/12/17 11:09:53;;;;;;;17.08;9.55;;;11.90;82.00;;;;;;4924927;28;92794;-69
2021/12/17 11:12:24;;;;;;;15.93;10.30;;;11.80;81.80;;;;;;4936853;28;96618;-69
2021/12/17 11:14:52;;;;;;;17.27;10.50;;;11.80;82.00;;;;;;4935930;28;95287;-68
2021/12/17 11:17:23;;;;;;;15.63;10.00;;;11.70;82.70;;;;;;4937568;28;92748;-69
2021/12/17 11:20:17;;;;;;;19.70;13.15;;;11.70;82.90;;;;;;4937810;28;92503;-69
2021/12/17 11:22:46;;;;;;;20.08;11.57;;;11.80;82.90;;;;;;4937010;28;93184;-69
2021/12/17 11:25:14;;;;;;;16.05;10.10;;;11.70;83.00;;;;;;4937002;28;95776;-69
2021/12/17 11:27:42;;;;;;;18.50;10.38;;;11.70;82.90;;;;;;4919991;28;92457;-72
2021/12/17 11:30:16;;;;;;;16.15;10.32;;;11.80;82.90;;;;;;4937961;28;91767;-73
2021/12/17 11:32:45;;;;;;;15.00;9.50;;;11.80;82.90;;;;;;4935942;28;94152;-73
2021/12/17 11:35:14;;;;;;;13.48;9.50;;;11.80;82.90;;;;;;4937078;28;107865;-73
2021/12/17 11:37:44;;;;;;;13.40;9.07;;;11.80;82.60;;;;;;4935751;28;95610;-73
2021/12/17 11:40:36;;;;;;;13.73;9.20;;;11.80;82.70;;;;;;4936580;28;92895;-73
2021/12/17 11:43:15;;;;;;;15.20;8.57;;;11.90;82.70;;;;;;4930915;28;93066;-73
2021/12/17 11:45:44;;;;;;;12.73;8.90;;;11.80;83.00;;;;;;4937650;28;92980;-73
2021/12/17 11:48:17;;;;;;;13.40;8.60;;;11.80;83.10;;;;;;4936391;28;92462;-73
2021/12/17 11:51:05;;;;;;;12.40;8.02;;;11.80;83.10;;;;;;4937632;28;92536;-73
2021/12/17 11:53:39;;;;;;;11.05;7.25;;;11.70;83.00;;;;;;4937104;28;93524;-73
2021/12/17 11:56:06;;;;;;;11.27;7.63;;;11.70;83.40;;;;;;4938139;28;93447;-73
2021/12/17 11:58:46;;;;;;;10.02;6.85;;;11.60;83.40;;;;;;4935836;28;92458;-73
2021/12/17 12:01:33;;;;;;;10.05;6.18;;;11.60;83.40;;;;;;4937786;28;92855;-73
2021/12/17 12:04:34;;;;;;;10.05;6.50;;;11.60;83.50;;;;;;4934314;28;96476;-73
2021/12/17 12:07:06;;;;;;;9.88;6.18;;;11.70;83.60;;;;;;4936983;28;95094;-73
2021/12/17 12:10:03;;;;;;;7.45;4.63;;;11.70;83.70;;;;;;4937461;28;93251;-73
2021/12/17 12:12:50;;;;;;;7.53;4.55;;;11.70;83.30;;;;;;4935959;28;92446;-73
2021/12/17 12:15:21;;;;;;;7.32;4.35;;;11.70;83.20;;;;;;4936853;28;93518;-73
2021/12/17 12:18:08;;;;;;;5.50;4.13;;;11.60;83.30;;;;;;4937221;28;93398;-73
2021/12/17 12:20:47;;;;;;;5.90;4.00;;;11.60;83.30;;;;;;4936962;28;92442;-73
2021/12/17 12:23:29;;;;;;;6.57;3.83;;;11.50;83.90;;;;;;4937315;28;91813;-73
2021/12/17 12:26:07;;;;;;;6.93;4.15;;;11.50;84.10;;;;;;4935345;28;96272;-73
2021/12/17 12:28:48;;;;;;;7.38;5.15;;;11.50;84.00;;;;;;4935656;28;92724;-73
2021/12/17 12:31:27;;;;;;;;;;;11.60;83.80;;;;;;4936593;28;94809;-73
2021/12/17 12:37:07;;;;;;;6.57;4.40;;;11.50;84.00;;;;;;4935310;28;94199;-73
2021/12/17 12:39:42;;;;;;;7.20;4.63;;;11.60;83.50;;;;;;4936614;28;94543;-73
2021/12/17 12:42:17;;;;;;;9.15;4.90;;;11.60;83.50;;;;;;4937013;28;92530;-73
2021/12/17 12:44:44;;;;;;;5.22;4.00;;;11.60;83.20;;;;;;4936747;28;92464;-73
2021/12/17 12:47:31;;;;;;;4.20;3.80;;;11.60;83.20;;;;;;4935214;28;94173;-73
2021/12/17 12:50:06;;;;;;;5.00;3.50;;;11.60;83.20;;;;;;4936932;28;94294;-73
2021/12/17 12:52:46;;;;;;;4.80;3.92;;;11.60;83.50;;;;;;4936561;28;92591;-73
2021/12/17 12:55:32;;;;;;;5.38;3.53;;;11.50;83.50;;;;;;4936658;28;92425;-73
2021/12/17 12:58:01;;;;;;;5.93;3.22;;;11.50;83.60;;;;;;4936074;28;94798;-73
2021/12/17 13:00:31;;;;;;;5.40;2.83;;;11.50;83.50;;;;;;4936128;28;95266;-73
2021/12/17 13:03:16;;;;;;;2.85;2.17;;;11.50;83.40;;;;;;4935264;28;92446;-73
2021/12/17 13:05:47;;;;;;;2.70;2.50;;;11.50;83.70;;;;;;4936532;28;92615;-73
2021/12/17 13:08:15;;;;;;;3.47;2.63;;;11.40;84.00;;;;;;4936440;28;92929;-73
2021/12/17 13:10:50;;;;;;;3.47;2.92;;;11.40;84.00;;;;;;4934975;28;92678;-73
2021/12/17 13:21:34;;;;;;;2.67;2.47;;;11.50;84.10;;;;;;4934917;28;94285;-69
2021/12/17 13:26:44;;;;;;;4.65;2.75;;;11.40;83.80;;;;;;4936242;28;92507;-68
2021/12/17 13:29:40;;;;;;;4.28;3.30;;;11.50;83.90;;;;;;4935079;28;92877;-69
2021/12/17 13:32:11;;;;;;;3.28;2.90;;;11.40;83.80;;;;;;4934300;28;94067;-69
2021/12/17 13:34:48;;;;;;;3.03;2.60;;;11.40;84.00;;;;;;4934710;28;92504;-69
2021/12/17 13:37:24;;;;;;;4.43;3.28;;;11.40;84.00;;;;;;4936387;28;92466;-73
2021/12/17 13:40:05;;;;;;;4.60;3.95;;;11.50;84.00;;;;;;4935719;28;93111;-73
2021/12/17 13:42:36;;;;;;;5.30;4.47;;;11.50;83.90;;;;;;4936386;28;92882;-73
2021/12/17 13:45:13;;;;;;;5.68;5.18;;;11.40;83.90;;;;;;4934723;28;92362;-74
2021/12/17 13:47:47;;;;;;;6.15;4.97;;;11.40;84.00;;;;;;4932576;28;92610;-73
2021/12/17 13:50:30;;;;;;;5.88;5.22;;;11.40;84.10;;;;;;4933449;28;96493;-69
2021/12/17 13:52:59;;;;;;;6.95;5.00;;;11.40;84.20;;;;;;4936124;28;95029;-69
2021/12/17 13:55:31;;;;;;;6.35;5.47;;;11.30;84.30;;;;;;4936135;28;92739;-69
2021/12/17 13:57:59;;;;;;;7.82;5.72;;;11.30;84.50;;;;;;4936420;28;92421;-69
2021/12/17 14:00:31;;;;;;;7.70;5.63;;;11.20;84.70;;;;;;4935240;28;93146;-69
2021/12/17 14:02:59;;;;;;;8.07;5.50;;;11.30;84.70;;;;;;4939341;28;92951;-69
2021/12/17 14:05:40;;;;;;;7.28;5.55;;;11.30;84.60;;;;;;4939530;28;92428;-69
2021/12/17 14:08:13;;;;;;;8.00;5.70;;;11.30;84.70;;;;;;4939727;28;92214;-69
2021/12/17 14:10:41;;;;;;;7.63;5.60;;;11.30;84.70;;;;;;4937832;28;94807;-73
2021/12/17 14:13:20;;;;;;;5.28;4.75;;;11.30;84.60;;;;;;4939053;28;92844;-73
2021/12/17 14:16:03;;;;;;;8.18;7.10;;;11.40;84.50;;;;;;4938116;28;94735;-73
2021/12/17 14:18:30;;;;;;;5.50;5.00;;;11.30;84.70;;;;;;4937801;28;92468;-73
2021/12/17 14:21:02;;;;;;;6.45;4.60;;;11.30;84.70;;;;;;4938828;28;92987;-73
2021/12/17 14:23:31;;;;;;;5.75;5.00;;;11.30;84.80;;;;;;4937000;28;93947;-73
2021/12/17 14:26:00;;;;;;;7.78;6.72;;;11.30;84.80;;;;;;4937332;28;92468;-73
2021/12/17 14:28:35;;;;;;;6.47;4.93;;;11.30;84.80;;;;;;4938982;28;92451;-76
2021/12/17 14:31:04;;;;;;;8.25;5.65;;;11.30;84.80;;;;;;4938613;28;93152;-73
2021/12/17 14:33:37;;;;;;;6.07;5.47;;;11.30;85.10;;;;;;4939146;28;92954;-73
2021/12/17 14:36:05;;;;;;;6.82;6.13;;;11.30;85.00;;;;;;4939202;28;92363;-73
2021/12/17 14:38:57;;;;;;;7.53;5.72;;;11.30;85.10;;;;;;4938935;28;92454;-73
2021/12/17 14:41:53;;;;;;;8.20;5.95;;;11.40;84.70;;;;;;4937354;28;95458;-73
2021/12/17 14:47:25;;;;;;;5.93;5.20;;;11.40;84.20;;;;;;4938740;28;92382;-73
2021/12/17 15:00:14;;;;;;;7.97;7.20;;;11.30;84.20;;;;;;4937201;28;92538;-73
2021/12/17 15:06:02;;;;;;;9.20;7.63;;;11.30;84.40;;;;;;4938100;28;92885;-73
2021/12/17 15:08:30;;;;;;;9.15;8.25;;;11.30;84.60;;;;;;4937059;28;94858;-72
2021/12/17 15:10:59;;;;;;;9.68;7.07;;;11.30;84.70;;;;;;4938043;28;92510;-73
2021/12/17 15:13:26;;;;;;;9.20;7.28;;;11.30;84.70;;;;;;4936791;28;93077;-72
2021/12/17 15:15:54;;;;;;;11.50;8.35;;;11.30;84.80;;;;;;4938008;28;92781;-73
2021/12/17 15:18:21;;;;;;;11.32;10.07;;;11.30;84.80;;;;;;4938268;28;92441;-73
2021/12/17 15:20:51;;;;;;;9.82;8.18;;;11.30;84.90;;;;;;4937610;28;92379;-73
2021/12/17 15:23:19;;;;;;;10.70;8.07;;;11.20;85.10;;;;;;4937147;28;92581;-72
2021/12/17 15:25:47;;;;;;;14.32;12.05;;;11.20;85.10;;;;;;4938771;28;92781;-69
2021/12/17 15:28:17;;;;;;;8.40;7.50;;;11.20;85.30;;;;;;4936545;28;92445;-69
2021/12/17 15:30:48;;;;;;;8.50;7.22;;;11.20;85.20;;;;;;4936482;28;92534;-69
2021/12/17 15:33:16;;;;;;;8.25;6.18;;;11.30;85.30;;;;;;4936852;28;95511;-72
2021/12/17 15:35:44;;;;;;;8.73;6.38;;;11.10;85.30;;;;;;4937117;28;113760;-73
2021/12/17 15:38:12;;;;;;;8.55;6.22;;;11.10;85.40;;;;;;4938098;28;92506;-73
2021/12/17 15:40:41;;;;;;;11.68;7.90;;;11.10;85.50;;;;;;4938008;28;93005;-72
2021/12/17 15:43:09;;;;;;;8.15;6.32;;;11.10;85.70;;;;;;4936167;28;94261;-72
2021/12/17 15:45:39;;;;;;;7.63;6.57;;;11.10;85.60;;;;;;4937647;28;92631;-72
2021/12/17 15:48:08;;;;;;;13.25;8.88;;;11.00;85.70;;;;;;4937574;28;92366;-72
2021/12/17 15:50:55;;;;;;;10.60;7.03;;;11.00;85.90;;;;;;4936676;28;91827;-73
2021/12/17 15:53:22;;;;;;;8.05;6.72;;;11.00;85.90;;;;;;4937341;28;94207;-73
2021/12/17 15:55:49;;;;;;;9.80;7.43;;;11.00;85.90;;;;;;4937429;28;92852;-73
2021/12/17 15:58:16;;;;;;;9.05;7.47;;;11.00;85.90;;;;;;4935319;28;94878;-72
2021/12/17 16:00:44;;;;;;;9.73;6.50;;;11.00;86.00;;;;;;4937403;28;92426;-73
2021/12/17 16:03:14;;;;;;;11.25;8.25;;;11.00;86.10;;;;;;4936948;28;105894;-73
2021/12/17 16:05:41;;;;;;;7.07;6.28;;;11.00;86.30;;;;;;4936511;28;92888;-73
2021/12/17 16:08:08;;;;;;;8.88;7.18;;;11.00;86.30;;;;;;4937718;28;92425;-73
2021/12/17 16:21:18;;;;;;;10.30;6.50;;;10.90;86.80;;;;;;4937380;28;92840;-73
2021/12/17 16:23:53;;;;;;;9.65;6.53;;;10.90;86.10;;;;;;4934991;28;95537;-73
2021/12/17 16:26:22;;;;;;;10.38;7.00;;;10.90;85.80;;;;;;4937255;28;95192;-76
2021/12/17 16:28:50;;;;;;;8.77;6.13;;;10.90;85.90;;;;;;4937278;28;92459;-76
2021/12/17 16:31:24;;;;;;;9.73;6.75;;;10.90;85.70;;;;;;4937070;28;92431;-76
2021/12/17 16:33:58;;;;;;;7.82;6.43;;;10.90;85.60;;;;;;4936008;28;93311;-76
2021/12/17 16:36:30;;;;;;;8.40;6.13;;;10.80;85.60;;;;;;4937058;28;92933;-76